LOWS Airport Information

Runway Information
Runway 16 Length 9022 ft width 148 ft
Elevation 1411 ft Threshold 656 ft Heading 157
Runway 34 Length 9022 ft Width 148 ft
Elevation 1411 ft Threshold 787 ft Heading 337
Airport Frequencies
Type APP Name APP Frequency 123.725 MHZ
Type ATIS Name ATIS Frequency 125.725 MHZ
Type GND Name GND Frequency 121.75 MHZ
Type TWR Name TWR Frequency 118.1 MHZ
Airport Navaids
Type VOR-DME Name Salzburg Frequency 113800 KHZ
Type NDB Name Salzburg Frequency 382 KHZ
Type NDB Name Salzburg Frequency 410 KHZ
Type NDB Name Salzburg Frequency 356 KHZ
Airport Weather Information & NOTAM
ADDS - METARS form results

(1315 UTC 22 June 2018)
 
METAR text: LOWS 221250Z 32014KT 9999 SCT050 BKN075 16/04 Q1022 NOSIG
Conditions at: LOWS (SALZBURG AIRPORT, AT) observed 1250 UTC 22 June 2018
Temperature: 16.0°C (61°F)
Dewpoint: 4.0°C (39°F) [RH = 45%]
Pressure (altimeter): 30.18 inches Hg (1022.0 mb)
Winds: from the NW (320 degrees) at 16 MPH (14 knots; 7.3 m/s)
Visibility: 6 or more miles (10+ km)
Ceiling: 7500 feet AGL
Clouds: scattered clouds at 5000 feet AGL
broken clouds at 7500 feet AGL
Weather: no significant weather observed at this time

METAR text: LOWS 221220Z 31015KT 9999 SCT050 BKN075 16/04 Q1021 NOSIG
Conditions at: LOWS (SALZBURG AIRPORT, AT) observed 1220 UTC 22 June 2018
Temperature: 16.0°C (61°F)
Dewpoint: 4.0°C (39°F) [RH = 45%]
Pressure (altimeter): 30.15 inches Hg (1021.0 mb)
Winds: from the NW (310 degrees) at 17 MPH (15 knots; 7.8 m/s)
Visibility: 6 or more miles (10+ km)
Ceiling: 7500 feet AGL
Clouds: scattered clouds at 5000 feet AGL
broken clouds at 7500 feet AGL
Weather: no significant weather observed at this time